Home > Products > Valid Products > MTR

000
SAUS43 KMQT 211157
MTRP53
METAR KP53 211156Z AUTO 23003KT M01/M04 A3014 RMK AO1 SLP216
T10111044 11011 21011 57015





000
SAUS43 KMQT 211154
MTRP59
METAR KP59 211151Z AUTO 00000KT M01/M03 A3008 RMK AO1 SLP199
T10111033 10000 21011 56012





000
SAUS43 KMQT 211057
MTRP53
METAR KP53 211056Z AUTO 21003KT M01/M04 A3016 RMK AO1 SLP223
T10111044





000
SAUS43 KMQT 211057
MTRP53
METAR KP53 211056Z AUTO 21003KT M01/M04 A3016 RMK AO1 SLP223
T10111044





000
SAUS43 KMQT 211053
MTRP59
METAR KP59 211051Z AUTO 00000KT M01/M03 A3008 RMK AO1 SLP199
T10061033





000
SAUS43 KMQT 211053
MTRP59
METAR KP59 211051Z AUTO 00000KT M01/M03 A3008 RMK AO1 SLP199
T10061033





000
SAUS43 KMQT 210957
MTRP53
METAR KP53 210956Z AUTO 20004KT M01/M04 A3017 RMK AO1 SLP225
T10111044





000
SAUS43 KMQT 210957
MTRP53
METAR KP53 210956Z AUTO 20004KT M01/M04 A3017 RMK AO1 SLP225
T10111044





000
SAUS43 KMQT 210954
MTRP59
METAR KP59 210951Z AUTO 00000KT M01/M03 A3010 RMK AO1 SLP206
T10061033





000
SAUS43 KMQT 210857
MTRP53
METAR KP53 210856Z AUTO 17004KT M01/M05 A3019 RMK AO1 SLP230
T10111050 58002





000
SAUS43 KMQT 210854
MTRP59
METAR KP59 210851Z AUTO 24005KT M01/M03 A3012 RMK AO1 SLP211
T10061033 58005





000
SAUS43 KMQT 210757
MTRP53
METAR KP53 210756Z AUTO 19004KT M01/M05 A3019 RMK AO1 SLP233
T10111050





000
SAUS43 KMQT 210754
MTRP59
METAR KP59 210751Z AUTO 25004KT 00/M03 A3013 RMK AO1 SLP215
T00001033





000
SAUS43 KMQT 210658
MTRP53
METAR KP53 210656Z AUTO 19004KT M01/M06 A3018 RMK AO1 SLP230
T10111056





000
SAUS43 KMQT 210654
MTRP59
METAR KP59 210651Z AUTO 24004KT M01/M03 A3013 RMK AO1 SLP214
T10061033





000
SAUS43 KMQT 210557
MTRP53
METAR KP53 210556Z AUTO 20007KT M01/M06 A3019 RMK AO1 SLP233
T10111056 11011 21011 56007





000
SAUS43 KMQT 210552
MTRP59
METAR KP59 210551Z AUTO 24005KT M01/M03 A3013 RMK AO1 SLP216
T10061033 11006 21017 58005





000
SAUS43 KMQT 210457
MTRP53
METAR KP53 210456Z AUTO 19007KT M01/M06 A3020 RMK AO1 SLP235
T10111056 400001111





000
SAUS43 KMQT 210457
MTRP53
METAR KP53 210456Z AUTO 19007KT M01/M06 A3020 RMK AO1 SLP235
T10111056 400001111





000
SAUS43 KMQT 210452
MTRP59
METAR KP59 210451Z AUTO 23004KT M01/M03 A3014 RMK AO1 SLP220
T10061033 400001061





000
SAUS43 KMQT 210452
MTRP59
METAR KP59 210451Z AUTO 23004KT M01/M03 A3014 RMK AO1 SLP220
T10061033 400001061





000
SAUS43 KMQT 210357
MTRP53
METAR KP53 210356Z AUTO 20007KT M01/M06 A3020 RMK AO1 SLP237
T10111056





000
SAUS43 KMQT 210357
MTRP53
METAR KP53 210356Z AUTO 20007KT M01/M06 A3020 RMK AO1 SLP237
T10111056





000
SAUS43 KMQT 210354
MTRP59
METAR KP59 210351Z AUTO 24004KT M01/M03 A3015 RMK AO1 SLP222
T10061033





000
SAUS43 KMQT 210354
MTRP59
METAR KP59 210351Z AUTO 24004KT M01/M03 A3015 RMK AO1 SLP222
T10061033





000
SAUS43 KMQT 210257
MTRP53
METAR KP53 210256Z AUTO 20006KT M01/M06 A3021 RMK AO1 SLP242
T10111056 55001





000
SAUS43 KMQT 210254
MTRP59
METAR KP59 210251Z AUTO 25004KT M01/M03 A3015 RMK AO1 SLP223
T10111033 58007





000
SAUS43 KMQT 210157
MTRP53
METAR KP53 210156Z AUTO 20006KT M01/M06 A3020 RMK AO1 SLP240
T10111056





000
SAUS43 KMQT 210154
MTRP59
METAR KP59 210151Z AUTO 24004KT M01/M04 A3016 RMK AO1 SLP229
T10111039





000
SAUS43 KMQT 210057
MTRP53
METAR KP53 210056Z AUTO 20006KT M01/M06 A3022 RMK AO1 SLP245
T10111056





000
SAUS43 KMQT 210053
MTRP59
METAR KP59 210051Z AUTO 23006KT M01/M04 A3016 RMK AO1 SLP228
T10111044





000
SAUS43 KMQT 202357
MTRP53
METAR KP53 202356Z AUTO 20006KT M01/M06 A3022 RMK AO1 SLP243
T10111056 10000 21017 50003





000
SAUS43 KMQT 202354
MTRP59
METAR KP59 202351Z AUTO 24006KT M02/M04 A3017 RMK AO1 SLP231
T10171044 10000 21022 50001





000
SAUS43 KMQT 202257
MTRP53
METAR KP53 202256Z AUTO 18005KT M01/M06 A3022 RMK AO1 SLP244
T10111061





000
SAUS43 KMQT 202254
MTRP59
METAR KP59 202251Z AUTO 23004KT M02/M04 A3017 RMK AO1 SLP230
T10171044





000
SAUS43 KMQT 202157
MTRP53
METAR KP53 202156Z AUTO 19004KT M01/M07 A3022 RMK AO1 SLP244
T10111067





000
SAUS43 KMQT 202154
MTRP59
METAR KP59 202151Z AUTO 24004KT M02/M05 A3017 RMK AO1 SLP231
T10171050





000
SAUS43 KMQT 202057
MTRP53
METAR KP53 202056Z AUTO 19004KT M01/M07 A3021 RMK AO1 SLP240
T10061067 55010





000
SAUS43 KMQT 202053
MTRP59
METAR KP59 202051Z AUTO 24003KT M01/M05 A3017 RMK AO1 SLP229
T10111050 55008





000
SAUS43 KMQT 201957
MTRP53
METAR KP53 201956Z AUTO 20006KT 00/M07 A3020 RMK AO1 SLP237
T00001067





000
SAUS43 KMQT 201954
MTRP59
METAR KP59 201951Z AUTO 26003KT M01/M05 A3016 RMK AO1 SLP228
T10061050





000
SAUS43 KMQT 201857
MTRP53
METAR KP53 201856Z AUTO 21006KT M01/M07 A3021 RMK AO1 SLP241
T10061072





000
SAUS43 KMQT 201854
MTRP59
METAR KP59 201851Z AUTO 00000KT M01/M06 A3017 RMK AO1 SLP231
T10061056





000
SAUS43 KMQT 201757
MTRP53
METAR KP53 201756Z AUTO 19004KT M02/M07 A3024 RMK AO1 SLP249
T10171072 11017 21111 58008





000
SAUS43 KMQT 201753
MTRP59
METAR KP59 201751Z AUTO 23005KT M02/M06 A3019 RMK AO1 SLP238
T10171056 11017 21061 58005





000
SAUS43 KMQT 201657
MTRP53
METAR KP53 201656Z AUTO 19006KT M02/M07 A3024 RMK AO1 SLP250
T10171072





000
SAUS43 KMQT 201654
MTRP59
METAR KP59 201651Z AUTO M03/M07 A3020 RMK AO1 SLP242 T10281067





000
SAUS43 KMQT 201557
MTRP53
METAR KP53 201556Z AUTO 19004KT M04/M07 A3027 RMK AO1 SLP259
T10441072





000
SAUS43 KMQT 201552
MTRP59
METAR KP59 201551Z AUTO 23006KT M03/M07 A3021 RMK AO1 SLP245
T10331067





000
SAUS43 KMQT 201457
MTRP53
METAR KP53 201456Z AUTO 00000KT M09/M12 A3026 RMK AO1 SLP259
T10941122 55000





000
SAUS43 KMQT 201454
MTRP59
METAR KP59 201451Z AUTO 24005KT M04/M07 A3021 RMK AO1 SLP244
T10441067 50001





000
SAUS43 KMQT 201357
MTRP53
METAR KP53 201356Z AUTO 18003KT M11/M14 A3026 RMK AO1 SLP259
T11111139





000
SAUS43 KMQT 201354
MTRP59
METAR KP59 201351Z AUTO 22004KT M06/M08 A3021 RMK AO1 SLP246
T10561078





000
SAUS43 KMQT 201257
MTRP53
METAR KP53 201256Z AUTO 22003KT M10/M12 A3026 RMK AO1 SLP259
T11001122





000
SAUS43 KMQT 201254
MTRP59
METAR KP59 201251Z AUTO 00000KT M06/M08 A3022 RMK AO1 SLP246
T10561078





000
SAUS43 KMQT 201157
MTRP53
METAR KP53 201156Z AUTO 21004KT M08/M12 A3026 RMK AO1 SLP258
T10831117 11044 21089 53001





000
SAUS43 KMQT 201153
MTRP59
METAR KP59 201151Z AUTO 24008KT M04/M07 A3021 RMK AO1 SLP243
T10441072 11028 21044 56001





000
SAUS43 KMQT 201057
MTRP53
METAR KP53 201056Z AUTO 20005KT M07/M09 A3026 RMK AO1 SLP258
T10671094





000
SAUS43 KMQT 201054
MTRP59
METAR KP59 201051Z AUTO 24006KT M03/M06 A3021 RMK AO1 SLP242
T10331061





000
SAUS43 KMQT 200957
MTRP53
METAR KP53 200956Z AUTO 21005KT M08/M11 A3026 RMK AO1 SLP256
T10831111





000
SAUS43 KMQT 200952
MTRP59
METAR KP59 200951Z AUTO 24006KT M03/M06 A3021 RMK AO1 SLP242
T10331061





000
SAUS43 KMQT 200857
MTRP53
METAR KP53 200856Z AUTO 20006KT M08/M11 A3026 RMK AO1 SLP257
T10781106 53004





000
SAUS43 KMQT 200854
MTRP59
METAR KP59 200851Z AUTO 23003KT M03/M07 A3021 RMK AO1 SLP243
T10331067 56005





000
SAUS43 KMQT 200757
MTRP53
METAR KP53 200756Z AUTO 20005KT M07/M10 A3025 RMK AO1 SLP255
T10671100





000
SAUS43 KMQT 200757
MTRP53
METAR KP53 200756Z AUTO 20005KT M07/M10 A3025 RMK AO1 SLP255
T10671100





000
SAUS43 KMQT 200752
MTRP59
METAR KP59 200751Z AUTO 00000KT M03/M06 A3021 RMK AO1 SLP243
T10331061





000
SAUS43 KMQT 200752
MTRP59
METAR KP59 200751Z AUTO 00000KT M03/M06 A3021 RMK AO1 SLP243
T10331061





000
SAUS43 KMQT 200658
MTRP53
METAR KP53 200656Z AUTO 19003KT M06/M09 A3025 RMK AO1 SLP252
T10611089





000
SAUS43 KMQT 200654
MTRP59
METAR KP59 200651Z AUTO 24004KT M03/M06 A3021 RMK AO1 SLP243
T10281061





000
SAUS43 KMQT 200557
MTRP53
METAR KP53 200556Z AUTO 00000KT M04/M08 A3025 RMK AO1 SLP252
T10391078 11006 21039 58008





000
SAUS43 KMQT 200553
MTRP59
METAR KP59 200551Z AUTO 00000KT M03/M05 A3022 RMK AO1 SLP248
T10331050 11017 21033 55006





000
SAUS43 KMQT 200457
MTRP53
METAR KP53 200456Z AUTO 18003KT M02/M07 A3026 RMK AO1 SLP256
T10221072 400061072





000
SAUS43 KMQT 200453
MTRP59
METAR KP59 200451Z AUTO 00000KT M03/M05 A3022 RMK AO1 SLP248
T10281050 400001061





000
SAUS43 KMQT 200357
MTRP53
METAR KP53 200356Z AUTO 20003KT M02/M07 A3027 RMK AO1 SLP260
T10171072





000
SAUS43 KMQT 200357
MTRP53
METAR KP53 200356Z AUTO 20003KT M02/M07 A3027 RMK AO1 SLP260
T10171072





000
SAUS43 KMQT 200354
MTRP59
METAR KP59 200351Z AUTO 00000KT M03/M05 A3024 RMK AO1 SLP253
T10281050





000
SAUS43 KMQT 200354
MTRP59
METAR KP59 200351Z AUTO 00000KT M03/M05 A3024 RMK AO1 SLP253
T10281050





000
SAUS43 KMQT 200257
MTRP53
METAR KP53 200256Z AUTO 21003KT M02/M07 A3027 RMK AO1 SLP261
T10171067 58000





000
SAUS43 KMQT 200254
MTRP59
METAR KP59 200251Z AUTO 00000KT M02/M05 A3024 RMK AO1 SLP255
T10221050 58004





000
SAUS43 KMQT 200157
MTRP53
METAR KP53 200156Z AUTO 00000KT M01/M06 A3028 RMK AO1 SLP264
T10111061





000
SAUS43 KMQT 200157
MTRP53
METAR KP53 200156Z AUTO 00000KT M01/M06 A3028 RMK AO1 SLP264
T10111061





000
SAUS43 KMQT 200154
MTRP59
METAR KP59 200151Z AUTO 00000KT M02/M05 A3025 RMK AO1 SLP258
T10171050





000
SAUS43 KMQT 200154
MTRP59
METAR KP59 200151Z AUTO 00000KT M02/M05 A3025 RMK AO1 SLP258
T10171050





000
SAUS43 KMQT 200057
MTRP53
METAR KP53 200056Z AUTO 00000KT M01/M06 A3028 RMK AO1 SLP263
T10111061





000
SAUS43 KMQT 200054
MTRP59
METAR KP59 200051Z AUTO 00000KT M02/M05 A3025 RMK AO1 SLP258
T10171050





000
SAUS43 KMQT 192357
MTRP53
METAR KP53 192356Z AUTO 04003KT M01/M06 A3027 RMK AO1 SLP261
T10061061 10006 21011 51006





000
SAUS43 KMQT 192354
MTRP59
METAR KP59 192351Z AUTO 00000KT M02/M05 A3025 RMK AO1 SLP259
T10171050 10000 21017 50004





000
SAUS43 KMQT 192257
MTRP53
METAR KP53 192256Z AUTO 32003KT M01/M07 A3027 RMK AO1 SLP259
T10061067





000
SAUS43 KMQT 192252
MTRP59
METAR KP59 192251Z AUTO 00000KT M01/M05 A3026 RMK AO1 SLP260
T10111050





000
SAUS43 KMQT 192157
MTRP53
METAR KP53 192156Z AUTO 00000KT M01/M07 A3026 RMK AO1 SLP257
T10061067





000
SAUS43 KMQT 192152
MTRP59
METAR KP59 192151Z AUTO 00000KT M01/M06 A3025 RMK AO1 SLP257
T10061056





000
SAUS43 KMQT 192057
MTRP53
METAR KP53 192056Z AUTO 00000KT M01/M07 A3025 RMK AO1 SLP256
T10061067 55002





000
SAUS43 KMQT 192054
MTRP59
METAR KP59 192051Z AUTO 00000KT 00/M06 A3024 RMK AO1 SLP255
T00001061 55008





000
SAUS43 KMQT 191957
MTRP53
METAR KP53 191956Z AUTO 06005KT 00/M06 A3025 RMK AO1 SLP253
T00001056





000
SAUS43 KMQT 191957
MTRP53
METAR KP53 191956Z AUTO 06005KT 00/M06 A3025 RMK AO1 SLP253
T00001056





000
SAUS43 KMQT 191952
MTRP59
METAR KP59 191951Z AUTO 20003KT M01/M06 A3023 RMK AO1 SLP251
T10061061





000
SAUS43 KMQT 191952
MTRP59
METAR KP59 191951Z AUTO 20003KT M01/M06 A3023 RMK AO1 SLP251
T10061061





000
SAUS43 KMQT 191857
MTRP53
METAR KP53 191856Z AUTO 03007KT 00/M06 A3025 RMK AO1 SLP253
T00001056





000
SAUS43 KMQT 191854
MTRP59
METAR KP59 191851Z AUTO 00000KT M01/M06 A3025 RMK AO1 SLP257
T10061061





000
SAUS43 KMQT 191854
MTRP59
METAR KP59 191851Z AUTO 00000KT M01/M06 A3025 RMK AO1 SLP257
T10061061





000
SAUS43 KMQT 191757
MTRP53
METAR KP53 191756Z AUTO 04005KT 01/M05 A3026 RMK AO1 SLP256
T00061050 10006 21050 58010





000
SAUS43 KMQT 191754
MTRP59
METAR KP59 191751Z AUTO 00000KT M01/M06 A3027 RMK AO1 SLP264
T10061056 11006 21033 58008





000
SAUS43 KMQT 191657
MTRP53
METAR KP53 191656Z AUTO 08003KT 00/M06 A3028 RMK AO1 SLP266
T00001056





000
SAUS43 KMQT 191653
MTRP59
METAR KP59 191651Z AUTO 00000KT M01/M06 A3028 RMK AO1 SLP268
T10111056





000
SAUS43 KMQT 191557
MTRP53
METAR KP53 191556Z AUTO 00000KT M02/M05 A3029 RMK AO1 SLP269
T10171050





000
SAUS43 KMQT 191554
MTRP59
METAR KP59 191551Z AUTO 26003KT M02/M06 A3029 RMK AO1 SLP274
T10171056





000
SAUS43 KMQT 191457
MTRP53
METAR KP53 191456Z AUTO VRB03KT M03/M06 A3029 RMK AO1 SLP269
T10281061 53007





000
SAUS43 KMQT 191454
MTRP59
METAR KP59 191451Z AUTO 26003KT M03/M06 A3029 RMK AO1 SLP274
T10281061 50004





000
SAUS43 KMQT 191357
MTRP53
METAR KP53 191356Z AUTO 18003KT M03/M07 A3028 RMK AO1 SLP267
T10331067





000
SAUS43 KMQT 191354
MTRP59
METAR KP59 191351Z AUTO 24003KT M03/M07 A3029 RMK AO1 SLP276
T10331067





000
SAUS43 KMQT 191257
MTRP53
METAR KP53 191256Z AUTO 18006KT M04/M07 A3027 RMK AO1 SLP263
T10441072





000
SAUS43 KMQT 191254
MTRP59
METAR KP59 191251Z AUTO 25004KT M03/M07 A3028 RMK AO1 SLP271
T10281067 $





000
SAUS43 KMQT 191157
MTRP53
METAR KP53 191156Z AUTO 19004KT M04/M07 A3027 RMK AO1 SLP260
T10441072 11044 21067 53006





000
SAUS43 KMQT 191154
MTRP59
METAR KP59 191151Z AUTO 00000KT M03/M07 A3028 RMK AO1 SLP270
T10331067 11033 21056 53003 $





000
SAUS43 KMQT 191057
MTRP53
METAR KP53 191056Z AUTO 20004KT M04/M08 A3026 RMK AO1 SLP255
T10441078





000
SAUS43 KMQT 191054
MTRP59
METAR KP59 191051Z AUTO 27003KT M03/M07 A3027 RMK AO1 SLP264
T10331067 $





000
SAUS43 KMQT 190957
MTRP53
METAR KP53 190956Z AUTO 19007KT M06/M08 A3025 RMK AO1 SLP255
T10561083





000
SAUS43 KMQT 190957
MTRP53
METAR KP53 190956Z AUTO 19007KT M06/M08 A3025 RMK AO1 SLP255
T10561083





000
SAUS43 KMQT 190954
MTRP59
METAR KP59 190951Z AUTO 25004KT M04/M07 A3027 RMK AO1 SLP265
T10391072 $





000
SAUS43 KMQT 190954
MTRP59
METAR KP59 190951Z AUTO 25004KT M04/M07 A3027 RMK AO1 SLP265
T10391072 $





000
SAUS43 KMQT 190857
MTRP53
METAR KP53 190856Z AUTO 18006KT M06/M08 A3025 RMK AO1 SLP254
T10611083 56002





000
SAUS43 KMQT 190854
MTRP59
METAR KP59 190851Z AUTO 25005KT M04/M07 A3027 RMK AO1 SLP265
T10391072 $





000
SAUS43 KMQT 190758
MTRP53
METAR KP53 190756Z AUTO 18004KT M06/M09 A3025 RMK AO1 SLP254
T10611089





000
SAUS43 KMQT 190754
MTRP59
METAR KP59 190751Z AUTO 25004KT M04/M07 A3027 RMK AO1 SLP263
T10391072





000
SAUS43 KMQT 190658
MTRP53
METAR KP53 190656Z AUTO VRB03KT M06/M08 A3024 RMK AO1 SLP251
T10561083





000
SAUS43 KMQT 190654
MTRP59
METAR KP59 190651Z AUTO 26004KT M05/M08 A3026 RMK AO1 SLP263
T10501078





000
SAUS43 KMQT 190557
MTRP53
METAR KP53 190556Z AUTO 17004KT M07/M09 A3025 RMK AO1 SLP255
T10671094 11011 21089 50002





000
SAUS43 KMQT 190554
MTRP59
METAR KP59 190551Z AUTO 25006KT M06/M08 A3027 RMK AO1 SLP266
T10561083 11050 21083 50001





000
SAUS43 KMQT 190457
MTRP53
METAR KP53 190456Z AUTO 17006KT M07/M10 A3026 RMK AO1 SLP257
T10721100 410061089





000
SAUS43 KMQT 190454
MTRP59
METAR KP59 190451Z AUTO 24004KT M06/M08 A3027 RMK AO1 SLP267
T10561083 410111083





000
SAUS43 KMQT 190357
MTRP53
METAR KP53 190356Z AUTO 18007KT M08/M11 A3025 RMK AO1 SLP255
T10831111





000
SAUS43 KMQT 190357
MTRP53
METAR KP53 190356Z AUTO 18007KT M08/M11 A3025 RMK AO1 SLP255
T10831111





000
SAUS43 KMQT 190354
MTRP59
METAR KP59 190351Z AUTO 25005KT M06/M09 A3027 RMK AO1 SLP266
T10611089





000
SAUS43 KMQT 190354
MTRP59
METAR KP59 190351Z AUTO 25005KT M06/M09 A3027 RMK AO1 SLP266
T10611089





000
SAUS43 KMQT 190257
MTRP53
METAR KP53 190256Z AUTO 18007KT M08/M12 A3025 RMK AO1 SLP255
T10831117 50000





000
SAUS43 KMQT 190253
MTRP59
METAR KP59 190251Z AUTO 25005KT M08/M11 A3027 RMK AO1 SLP267
T10781106 56001





000
SAUS43 KMQT 190157
MTRP53
METAR KP53 190156Z AUTO 18006KT M08/M11 A3025 RMK AO1 SLP255
T10781106





000
SAUS43 KMQT 190157
MTRP53
METAR KP53 190156Z AUTO 18006KT M08/M11 A3025 RMK AO1 SLP255
T10781106





000
SAUS43 KMQT 190154
MTRP59
METAR KP59 190151Z AUTO 25005KT M08/M11 A3027 RMK AO1 SLP269
T10831106





000
SAUS43 KMQT 190154
MTRP59
METAR KP59 190151Z AUTO 25005KT M08/M11 A3027 RMK AO1 SLP269
T10831106





000
SAUS43 KMQT 190057
MTRP53
METAR KP53 190056Z AUTO 00000KT M06/M09 A3025 RMK AO1 SLP255
T10611094





000
SAUS43 KMQT 190053
MTRP59
METAR KP59 190051Z AUTO 25006KT M08/M11 A3027 RMK AO1 SLP268
T10781106





000
SAUS43 KMQT 182357
MTRP53
METAR KP53 182356Z AUTO 34007KT M02/M07 A3025 RMK AO1 SLP253
T10171067 11006 21022 58001





000
SAUS43 KMQT 182353
MTRP59
METAR KP59 182351Z AUTO 25005KT M07/M10 A3027 RMK AO1 SLP267
T10671100 11011 21072 50000





000
SAUS43 KMQT 182257
MTRP53
METAR KP53 182256Z AUTO 33005KT M02/M07 A3025 RMK AO1 SLP254
T10171067





000
SAUS43 KMQT 182253
MTRP59
METAR KP59 182251Z AUTO 00000KT M06/M09 A3028 RMK AO1 SLP268
T10561089





000
SAUS43 KMQT 182157
MTRP53
METAR KP53 182156Z AUTO 36007KT M01/M07 A3025 RMK AO1 SLP255
T10111067





000
SAUS43 KMQT 182157
MTRP53
METAR KP53 182156Z AUTO 36007KT M01/M07 A3025 RMK AO1 SLP255
T10111067





000
SAUS43 KMQT 182154
MTRP59
METAR KP59 182151Z AUTO 07005KT M02/M08 A3028 RMK AO1 SLP267
T10221078





000
SAUS43 KMQT 182057
MTRP53
METAR KP53 182056Z AUTO 01011KT M01/M06 A3025 RMK AO1 SLP253
T10061061 55004





000
SAUS43 KMQT 182052
MTRP59
METAR KP59 182051Z AUTO 04004KT M02/M08 A3027 RMK AO1 SLP265
T10171078 55009





000
SAUS43 KMQT 181957
MTRP53
METAR KP53 181956Z AUTO 03011KT M01/M07 A3024 RMK AO1 SLP249
T10061072





000
SAUS43 KMQT 181954
MTRP59
METAR KP59 181951Z AUTO 08005KT M01/M08 A3026 RMK AO1 SLP261
T10111078





000
SAUS43 KMQT 181857
MTRP53
METAR KP53 181856Z AUTO 04011KT M01/M07 A3025 RMK AO1 SLP254
T10111072





000
SAUS43 KMQT 181852
MTRP59
METAR KP59 181851Z AUTO 05004KT M02/M08 A3028 RMK AO1 SLP266
T10171083





000
SAUS43 KMQT 181757
MTRP53
METAR KP53 181756Z AUTO 04013KT M01/M07 A3026 RMK AO1 SLP258
T10111072 11006 21028 58006





000
SAUS43 KMQT 181754
MTRP59
METAR KP59 181751Z AUTO VRB03KT M02/M08 A3030 RMK AO1 SLP274
T10171083 11011 21033 58006





000
SAUS43 KMQT 181657
MTRP53
METAR KP53 181656Z AUTO 04012KT M01/M07 A3028 RMK AO1 SLP263
T10111072





000
SAUS43 KMQT 181654
MTRP59
METAR KP59 181651Z AUTO 10003KT M02/M08 A3031 RMK AO1 SLP278
T10171078





000
SAUS43 KMQT 181557
MTRP53
METAR KP53 181556Z AUTO 03010KT M01/M08 A3029 RMK AO1 SLP268
T10111083





000
SAUS43 KMQT 181552
MTRP59
METAR KP59 181551Z AUTO 08006KT M02/M08 A3033 RMK AO1 SLP284
T10221078





000
SAUS43 KMQT 181457
MTRP53
METAR KP53 181456Z AUTO 05009KT M02/M09 A3028 RMK AO1 SLP264
T10221089 51004





000
SAUS43 KMQT 181453
MTRP59
METAR KP59 181451Z AUTO 11007KT 080V150 M02/M08 A3032 RMK AO1 SLP280
T10221078 55000





000
SAUS43 KMQT 181357
MTRP53
METAR KP53 181356Z AUTO 06007KT M03/M09 A3028 RMK AO1 SLP262
T10281089





000
SAUS43 KMQT 181357
MTRP53
METAR KP53 181356Z AUTO 06007KT M03/M09 A3028 RMK AO1 SLP262
T10281089





000
SAUS43 KMQT 181354
MTRP59
METAR KP59 181351Z AUTO 09006KT M03/M08 A3032 RMK AO1 SLP280
T10331083





000
SAUS43 KMQT 181354
MTRP59
METAR KP59 181351Z AUTO 09006KT M03/M08 A3032 RMK AO1 SLP280
T10331083





000
SAUS43 KMQT 181257
MTRP53
METAR KP53 181256Z AUTO 06009KT M03/M08 A3028 RMK AO1 SLP263
T10281078





000
SAUS43 KMQT 181257
MTRP53
METAR KP53 181256Z AUTO 06009KT M03/M08 A3028 RMK AO1 SLP263
T10281078





000
SAUS43 KMQT 181254
MTRP59
METAR KP59 181251Z AUTO 09008KT M03/M08 A3031 RMK AO1 SLP279
T10281078





000
SAUS43 KMQT 181254
MTRP59
METAR KP59 181251Z AUTO 09008KT M03/M08 A3031 RMK AO1 SLP279
T10281078





    US Dept of Commerce
    National Oceanic and Atmospheric Administration
    National Weather Service
    1325 East West Highway
    Silver Spring, MD 20910
    Page Author: NWS Internet Services Team
Disclaimer
Information Quality
Credits
Glossary
Privacy Policy
Freedom of Information Act (FOIA)
About Us
Career Opportunities